createdAt,value
2023-03-18T00:01:17.554Z,67871.25
2023-03-18T00:03:46.284Z,67867.88
2023-03-18T00:06:16.825Z,67864.84
2023-03-18T00:08:46.426Z,67859.03
2023-03-18T00:11:16.124Z,67859.94
2023-03-18T00:13:43.907Z,67858.81
2023-03-18T00:16:12.123Z,67862.00
2023-03-18T00:18:40.545Z,67854.66
2023-03-18T00:21:09.836Z,67852.94
2023-03-18T00:23:37.311Z,67856.16
2023-03-18T00:26:05.579Z,67841.84
2023-03-18T00:28:33.088Z,67839.78
2023-03-18T00:31:08.836Z,67849.00
2023-03-18T00:33:38.351Z,67849.75
2023-03-18T00:36:13.987Z,67842.81
2023-03-18T00:38:43.578Z,67841.84
2023-03-18T00:41:16.325Z,67841.31
2023-03-18T00:43:47.009Z,67793.47
2023-03-18T00:46:20.260Z,67841.66
2023-03-18T00:48:48.584Z,67833.94
2023-03-18T00:51:17.519Z,67835.84
2023-03-18T00:53:47.963Z,67836.75
2023-03-18T00:56:19.543Z,67835.66
2023-03-18T00:58:48.350Z,67833.41
2023-03-18T01:01:17.224Z,67836.22
2023-03-18T01:03:45.118Z,67835.44
2023-03-18T01:06:14.874Z,67835.44
2023-03-18T01:08:42.493Z,67836.75
2023-03-18T01:11:11.329Z,67829.44
2023-03-18T01:13:40.531Z,67828.13
2023-03-18T01:16:09.739Z,67827.53
2023-03-18T01:18:38.368Z,67826.25
2023-03-18T01:21:05.976Z,67825.50
2023-03-18T01:23:38.372Z,67821.16
2023-03-18T01:26:06.731Z,67776.91
2023-03-18T01:28:34.862Z,67826.03
2023-03-18T01:31:03.836Z,67823.03
2023-03-18T01:33:31.408Z,67817.56
2023-03-18T01:36:02.453Z,67810.44
2023-03-18T01:38:31.845Z,67822.47
2023-03-18T01:41:08.677Z,67814.00
2023-03-18T01:43:40.796Z,67821.31
2023-03-18T01:46:39.079Z,67817.94
2023-03-18T01:49:20.737Z,67811.34
2023-03-18T01:52:00.456Z,67815.13
2023-03-18T01:54:31.013Z,67812.50
2023-03-18T01:56:59.518Z,67810.59
2023-03-18T01:59:29.391Z,67815.13
2023-03-18T02:01:59.960Z,67760.72
2023-03-18T02:04:33.527Z,67804.00
2023-03-18T02:07:01.549Z,67801.75
2023-03-18T02:09:29.960Z,67802.69
2023-03-18T02:11:58.403Z,67807.78
2023-03-18T02:14:27.208Z,67798.94
2023-03-18T02:16:54.606Z,67803.81
2023-03-18T02:19:50.920Z,67751.72
2023-03-18T02:22:24.718Z,67748.31
2023-03-18T02:25:25.430Z,67790.47
2023-03-18T02:28:01.612Z,67789.72
2023-03-18T02:30:40.222Z,67785.94
2023-03-18T02:33:11.464Z,67788.03
2023-03-18T02:35:39.327Z,67782.00
2023-03-18T02:38:06.958Z,67784.25
2023-03-18T02:40:37.272Z,67777.50
2023-03-18T02:43:22.177Z,67780.31
2023-03-18T02:45:58.083Z,67773.53
2023-03-18T02:48:30.823Z,67773.34
2023-03-18T02:50:58.590Z,67773.53
2023-03-18T02:53:26.419Z,67771.28
2023-03-18T02:55:54.279Z,67770.53
2023-03-18T02:58:21.885Z,67767.31
2023-03-18T03:00:55.087Z,67763.94
2023-03-18T03:03:23.100Z,67762.81
2023-03-18T03:05:51.169Z,67761.50
2023-03-18T03:08:24.882Z,67762.25
2023-03-18T03:10:52.653Z,67756.78
2023-03-18T03:13:22.487Z,67764.28
2023-03-18T03:15:51.488Z,67767.69
2023-03-18T03:18:18.897Z,67759.22
2023-03-18T03:20:46.933Z,67757.72
2023-03-18T03:23:15.870Z,67760.00
2023-03-18T03:25:44.986Z,67760.34
2023-03-18T03:28:14.456Z,67758.31
2023-03-18T03:30:42.564Z,67758.66
2023-03-18T03:33:10.407Z,67749.81
2023-03-18T03:35:38.790Z,67747.38
2023-03-18T03:38:06.956Z,67749.63
2023-03-18T03:40:34.624Z,67748.72
2023-03-18T03:43:02.185Z,67744.56
2023-03-18T03:45:29.834Z,67741.38
2023-03-18T03:47:57.299Z,67694.72
2023-03-18T03:50:24.807Z,67741.38
2023-03-18T03:52:53.186Z,67739.66
2023-03-18T03:55:22.691Z,67737.19
2023-03-18T03:57:51.547Z,67732.91
2023-03-18T04:00:22.123Z,67737.97
2023-03-18T04:02:52.548Z,67737.78
2023-03-18T04:05:23.778Z,67737.78
2023-03-18T04:07:53.246Z,67733.47
2023-03-18T04:10:30.679Z,67738.91
2023-03-18T04:12:58.954Z,67728.59
2023-03-18T04:15:26.740Z,67736.84
2023-03-18T04:17:54.846Z,67738.34
2023-03-18T04:20:23.437Z,67732.13
2023-03-18T04:22:51.140Z,67722.53
2023-03-18T04:25:20.970Z,67673.13
2023-03-18T04:27:52.983Z,67719.72
2023-03-18T04:30:23.488Z,67667.09
2023-03-18T04:33:21.223Z,67668.22
2023-03-18T04:35:49.368Z,67709.00
2023-03-18T04:38:19.573Z,67700.38
2023-03-18T04:40:49.964Z,67703.00
2023-03-18T04:43:18.528Z,67699.81
2023-03-18T04:45:49.242Z,67702.81
2023-03-18T04:48:18.301Z,67702.44
2023-03-18T04:50:46.633Z,67650.19
2023-03-18T04:53:20.168Z,67694.16
2023-03-18T04:55:49.981Z,67690.78
2023-03-18T04:58:18.613Z,67687.59
2023-03-18T05:00:58.368Z,67687.75
2023-03-18T05:03:32.575Z,67687.56
2023-03-18T05:06:01.016Z,67685.50
2023-03-18T05:08:38.807Z,67685.88
2023-03-18T05:11:07.096Z,67679.66
2023-03-18T05:13:36.593Z,67679.84
2023-03-18T05:16:05.084Z,67682.13
2023-03-18T05:18:33.849Z,67627.63
2023-03-18T05:21:05.219Z,67626.88
2023-03-18T05:23:33.743Z,67674.78
2023-03-18T05:26:01.397Z,67671.97
2023-03-18T05:28:30.695Z,67675.13
2023-03-18T05:31:17.829Z,67667.66
2023-03-18T05:33:46.262Z,67670.63
2023-03-18T05:36:14.856Z,67675.13
2023-03-18T05:38:53.758Z,67672.34
2023-03-18T05:41:21.857Z,67667.47
2023-03-18T05:43:49.980Z,67670.63
2023-03-18T05:46:19.251Z,67667.81
2023-03-18T05:48:56.691Z,67616.94
2023-03-18T05:51:28.956Z,67665.75
2023-03-18T05:53:56.699Z,67665.75
2023-03-18T05:56:28.672Z,67667.81
2023-03-18T05:58:59.474Z,67620.31
2023-03-18T06:01:34.260Z,67674.59
2023-03-18T06:04:02.551Z,67623.13
2023-03-18T06:06:31.170Z,67670.81
2023-03-18T06:08:58.971Z,67628.22
2023-03-18T06:11:28.368Z,67679.31
2023-03-18T06:13:56.819Z,67677.78
2023-03-18T06:16:25.065Z,67684.38
2023-03-18T06:18:55.410Z,67687.75
2023-03-18T06:21:22.812Z,67687.38
2023-03-18T06:23:50.447Z,67689.44
2023-03-18T06:26:18.357Z,67649.41
2023-03-18T06:28:48.489Z,67701.84
2023-03-18T06:31:17.872Z,67719.16
2023-03-18T06:33:46.337Z,67716.53
2023-03-18T06:36:16.930Z,67715.41
2023-03-18T06:38:50.961Z,67716.34
2023-03-18T06:41:20.347Z,67720.28
2023-03-18T06:44:19.323Z,67720.13
2023-03-18T06:46:47.401Z,67721.03
2023-03-18T06:49:16.679Z,67729.88
2023-03-18T06:51:51.192Z,67741.53
2023-03-18T06:54:19.356Z,67758.66
2023-03-18T06:56:47.264Z,67778.06
2023-03-18T06:59:19.311Z,67771.63
2023-03-18T07:01:47.371Z,67762.25
2023-03-18T07:04:18.077Z,67772.63
2023-03-18T07:06:45.580Z,67783.13
2023-03-18T07:09:16.939Z,67796.69
2023-03-18T07:11:49.409Z,67792.16
2023-03-18T07:14:21.293Z,67802.91
2023-03-18T07:16:49.532Z,67812.50
2023-03-18T07:19:17.962Z,67813.63
2023-03-18T07:21:46.501Z,67812.88
2023-03-18T07:24:14.411Z,67824.34
2023-03-18T07:26:41.888Z,67849.00
2023-03-18T07:29:10.687Z,67879.53
2023-03-18T07:31:38.713Z,67868.06
2023-03-18T07:34:06.404Z,67865.59
2023-03-18T07:36:33.843Z,67891.97
2023-03-18T07:39:02.156Z,67895.00
2023-03-18T07:41:29.797Z,67922.50
2023-03-18T07:44:03.205Z,67916.84
2023-03-18T07:46:34.729Z,67929.66
2023-03-18T07:49:02.468Z,67936.59
2023-03-18T07:51:29.927Z,67955.25
2023-03-18T07:53:57.528Z,67934.53
2023-03-18T07:56:25.158Z,67937.72
2023-03-18T07:58:52.974Z,67942.06
2023-03-18T08:01:20.625Z,67941.34
2023-03-18T08:03:48.148Z,67955.25
2023-03-18T08:06:15.959Z,67968.47
2023-03-18T08:08:48.293Z,67989.94
2023-03-18T08:11:18.207Z,67986.56
2023-03-18T08:13:45.752Z,68012.19
2023-03-18T08:16:13.736Z,68026.16
2023-03-18T08:18:41.925Z,68018.78
2023-03-18T08:21:09.723Z,68036.31
2023-03-18T08:23:40.212Z,68064.25
2023-03-18T08:26:07.857Z,68064.78
2023-03-18T08:28:35.306Z,68067.63
2023-03-18T08:31:03.677Z,68092.50
2023-03-18T08:33:31.717Z,68127.44
2023-03-18T08:35:59.588Z,68178.38
2023-03-18T08:38:26.828Z,68205.38
2023-03-18T08:40:54.229Z,68269.94
2023-03-18T08:43:22.387Z,68305.84
2023-03-18T08:45:54.315Z,68317.56
2023-03-18T08:48:23.599Z,68331.00
2023-03-18T08:50:51.138Z,68294.69
2023-03-18T08:53:19.993Z,68305.84
2023-03-18T08:55:48.403Z,68312.66
2023-03-18T08:58:16.529Z,68346.09
2023-03-18T09:00:44.200Z,68375.78
2023-03-18T09:03:12.548Z,68363.69
2023-03-18T09:05:40.411Z,68386.53
2023-03-18T09:08:07.864Z,68383.34
2023-03-18T09:10:35.822Z,68393.91
2023-03-18T09:13:03.620Z,68390.72
2023-03-18T09:15:31.854Z,68405.66
2023-03-18T09:18:11.155Z,68413.59
2023-03-18T09:20:41.157Z,68433.25
2023-03-18T09:23:11.581Z,68444.59
2023-03-18T09:25:40.331Z,68436.47
2023-03-18T09:28:07.757Z,68399.97
2023-03-18T09:30:35.363Z,68398.47
2023-03-18T09:33:02.880Z,68394.31
2023-03-18T09:35:30.833Z,68395.63
2023-03-18T09:37:58.616Z,68450.28
2023-03-18T09:40:30.819Z,68462.94
2023-03-18T09:43:23.537Z,68441.38
2023-03-18T09:46:17.905Z,68420.56
2023-03-18T09:49:31.685Z,68411.31
2023-03-18T09:52:08.211Z,68410.38
2023-03-18T09:55:05.111Z,68404.50
2023-03-18T09:57:37.485Z,68406.22
2023-03-18T10:00:34.234Z,68427.19
2023-03-18T10:03:07.085Z,68415.28
2023-03-18T10:05:40.738Z,68413.19
2023-03-18T10:08:17.606Z,68406.75
2023-03-18T10:10:47.760Z,68427.97
2023-03-18T10:13:25.798Z,68433.44
2023-03-18T10:15:56.952Z,68424.00
2023-03-18T10:18:39.636Z,68456.88
2023-03-18T10:21:16.291Z,68489.22
2023-03-18T10:23:44.061Z,68499.06
2023-03-18T10:26:17.595Z,68508.91
2023-03-18T10:28:59.729Z,68501.31
2023-03-18T10:31:36.669Z,68537.31
2023-03-18T10:34:07.464Z,68518.56
2023-03-18T10:37:13.880Z,68536.16
2023-03-18T10:39:45.852Z,68524.25
2023-03-18T10:42:29.706Z,68549.41
2023-03-18T10:45:17.553Z,68552.81
2023-03-18T10:47:52.760Z,68575.53
2023-03-18T10:50:29.799Z,68562.84
2023-03-18T10:53:17.355Z,68585.56
2023-03-18T10:56:12.111Z,68569.66
2023-03-18T10:58:49.986Z,68575.91
2023-03-18T11:01:22.787Z,68588.97
2023-03-18T11:03:58.098Z,68601.25
2023-03-18T11:06:41.892Z,68602.03
2023-03-18T11:09:12.515Z,68606.56
2023-03-18T11:11:43.805Z,68621.34
2023-03-18T11:14:31.592Z,68632.13
2023-03-18T11:17:03.151Z,68640.84
2023-03-18T11:19:39.533Z,68644.63
2023-03-18T11:22:13.999Z,68647.09
2023-03-18T11:24:44.525Z,68664.88
2023-03-18T11:27:16.088Z,68693.88
2023-03-18T11:29:49.778Z,68705.06
2023-03-18T11:32:35.158Z,68649.91
2023-03-18T11:35:08.672Z,68648.03
2023-03-18T11:37:42.196Z,68649.91
2023-03-18T11:40:18.980Z,68680.06
2023-03-18T11:42:48.937Z,68699.19
2023-03-18T11:45:35.082Z,68674.19
2023-03-18T11:48:03.871Z,68654.09
2023-03-18T11:50:54.383Z,68643.28
2023-03-18T11:53:53.524Z,68627.22
2023-03-18T11:56:34.412Z,68650.69
2023-03-18T11:59:25.508Z,68661.31
2023-03-18T12:02:14.411Z,68639.13
2023-03-18T12:04:42.105Z,68647.47
2023-03-18T12:07:18.745Z,68640.84
2023-03-18T12:10:10.741Z,68633.25
2023-03-18T12:13:15.770Z,68615.09
2023-03-18T12:16:04.891Z,68610.72
2023-03-18T12:18:51.764Z,68625.31
2023-03-18T12:21:46.902Z,68632.69
2023-03-18T12:24:32.457Z,68640.66
2023-03-18T12:27:07.031Z,68643.50
2023-03-18T12:29:49.995Z,68672.09
2023-03-18T12:32:31.837Z,68691.44
2023-03-18T12:35:44.912Z,68704.47
2023-03-18T12:38:38.562Z,68685.53
2023-03-18T12:41:17.542Z,68631.91
2023-03-18T12:43:57.067Z,68638.56
2023-03-18T12:46:30.702Z,68653.16
2023-03-18T12:49:12.386Z,68647.84
2023-03-18T12:51:49.062Z,68663.00
2023-03-18T12:54:29.213Z,68673.06
2023-03-18T12:57:11.683Z,68646.16
2023-03-18T12:59:45.718Z,68674.19
2023-03-18T13:02:45.144Z,68695.78
2023-03-18T13:05:25.411Z,68710.16
2023-03-18T13:08:20.043Z,68719.66
2023-03-18T13:10:54.204Z,68721.72
2023-03-18T13:13:22.742Z,68742.00
2023-03-18T13:15:54.560Z,68731.75
2023-03-18T13:18:45.041Z,68746.00
2023-03-18T13:21:22.498Z,68744.28
2023-03-18T13:24:05.259Z,68699.94
2023-03-18T13:26:57.838Z,68702.78
2023-03-18T13:29:45.160Z,68703.75
2023-03-18T13:32:37.601Z,68696.53
2023-03-18T13:35:56.670Z,68690.09
2023-03-18T13:38:52.011Z,68705.06
2023-03-18T13:41:38.567Z,68708.13
2023-03-18T13:44:20.295Z,68685.00
2023-03-18T13:46:58.847Z,68662.06
2023-03-18T13:49:31.063Z,68685.91
2023-03-18T13:52:01.141Z,68708.09
2023-03-18T13:54:36.420Z,68725.50
2023-03-18T13:57:17.360Z,68722.13
2023-03-18T13:59:47.428Z,68715.47
2023-03-18T14:02:24.238Z,68723.81
2023-03-18T14:04:52.348Z,68729.50
2023-03-18T14:07:22.030Z,68745.78
2023-03-18T14:10:19.366Z,68770.81
2023-03-18T14:12:48.600Z,68768.16
2023-03-18T14:15:16.578Z,68774.97
2023-03-18T14:17:47.394Z,68772.53
2023-03-18T14:20:18.074Z,68738.59
2023-03-18T14:22:49.022Z,68744.09
2023-03-18T14:25:38.496Z,68742.41
2023-03-18T14:28:12.048Z,68734.06
2023-03-18T14:30:39.552Z,68709.03
2023-03-18T14:33:13.764Z,68720.59
2023-03-18T14:35:58.862Z,68707.34
2023-03-18T14:38:38.696Z,68703.75
2023-03-18T14:41:22.515Z,68698.44
2023-03-18T14:44:22.140Z,68699.38
2023-03-18T14:46:54.294Z,68720.41
2023-03-18T14:49:36.575Z,68715.69
2023-03-18T14:52:13.190Z,68699.00
2023-03-18T14:54:43.810Z,68702.03
2023-03-18T14:57:11.892Z,68679.50
2023-03-18T14:59:39.410Z,68656.91
2023-03-18T15:02:21.805Z,68665.28
2023-03-18T15:04:55.476Z,68659.56
2023-03-18T15:07:35.099Z,68667.94
2023-03-18T15:10:07.309Z,68658.09
2023-03-18T15:12:35.039Z,68646.88
2023-03-18T15:15:02.918Z,68652.78
2023-03-18T15:17:30.557Z,68658.66
2023-03-18T15:20:01.796Z,68662.22
2023-03-18T15:22:33.444Z,68657.31
2023-03-18T15:25:04.001Z,68657.31
2023-03-18T15:27:38.113Z,68629.09
2023-03-18T15:30:07.510Z,68619.06
2023-03-18T15:32:47.529Z,68601.63
2023-03-18T15:35:26.447Z,68595.94
2023-03-18T15:38:16.667Z,68602.97
2023-03-18T15:40:52.930Z,68598.41
2023-03-18T15:43:52.213Z,68591.03
2023-03-18T15:46:23.775Z,68591.81
2023-03-18T15:48:55.043Z,68583.47
2023-03-18T15:51:28.910Z,68585.19
2023-03-18T15:54:07.174Z,68581.75
2023-03-18T15:56:36.814Z,68573.66
2023-03-18T15:59:13.990Z,68540.72
2023-03-18T16:01:42.225Z,68532.75
2023-03-18T16:04:13.872Z,68538.06
2023-03-18T16:06:41.444Z,68520.66
2023-03-18T16:09:21.496Z,68510.06
2023-03-18T16:12:19.846Z,68498.31
2023-03-18T16:14:49.687Z,68504.34
2023-03-18T16:17:21.680Z,68516.84
2023-03-18T16:19:54.285Z,68501.72
2023-03-18T16:22:22.187Z,68487.16
2023-03-18T16:24:50.392Z,68490.19
2023-03-18T16:27:38.492Z,68490.34
2023-03-18T16:30:23.534Z,68483.19
2023-03-18T16:32:51.859Z,68474.28
2023-03-18T16:35:22.042Z,68471.25
2023-03-18T16:37:50.429Z,68466.34
2023-03-18T16:40:25.067Z,68452.16
2023-03-18T16:42:53.258Z,68443.28
2023-03-18T16:45:22.689Z,68434.00
2023-03-18T16:47:52.119Z,68428.69
2023-03-18T16:50:27.376Z,68423.22
2023-03-18T16:52:55.793Z,68415.66
2023-03-18T16:55:24.187Z,68411.31
2023-03-18T16:57:55.917Z,68396.94
2023-03-18T17:00:26.742Z,68389.19
2023-03-18T17:02:55.622Z,68378.59
2023-03-18T17:05:23.541Z,68380.69
2023-03-18T17:07:51.760Z,68373.31
2023-03-18T17:10:22.199Z,68367.66
2023-03-18T17:12:52.209Z,68359.91
2023-03-18T17:15:24.177Z,68353.28
2023-03-18T17:17:53.163Z,68335.53
2023-03-18T17:20:22.253Z,68335.50
2023-03-18T17:22:49.860Z,68326.25
2023-03-18T17:25:17.917Z,68319.06
2023-03-18T17:27:55.500Z,68298.47
2023-03-18T17:30:31.538Z,68286.38
2023-03-18T17:32:59.643Z,68276.00
2023-03-18T17:35:27.873Z,68275.81
2023-03-18T17:37:55.668Z,68270.53
2023-03-18T17:40:26.053Z,68262.22
2023-03-18T17:42:53.957Z,68255.41
2023-03-18T17:45:29.002Z,68249.19
2023-03-18T17:48:20.152Z,68242.94
2023-03-18T17:50:56.714Z,68234.44
2023-03-18T17:53:27.798Z,68232.00
2023-03-18T17:55:55.874Z,68220.09
2023-03-18T17:58:27.574Z,68219.16
2023-03-18T18:01:02.193Z,68207.25
2023-03-18T18:03:31.965Z,68207.63
2023-03-18T18:06:00.597Z,68203.13
2023-03-18T18:08:29.854Z,68199.16
2023-03-18T18:11:26.619Z,68196.69
2023-03-18T18:13:58.700Z,68187.06
2023-03-18T18:16:26.605Z,68181.22
2023-03-18T18:18:54.018Z,68173.84
2023-03-18T18:21:23.843Z,68173.84
2023-03-18T18:23:51.541Z,68167.06
2023-03-18T18:26:22.237Z,68165.38
2023-03-18T18:28:52.137Z,68159.88
2023-03-18T18:31:21.606Z,68155.16
2023-03-18T18:33:50.532Z,68150.81
2023-03-18T18:36:18.661Z,68149.31
2023-03-18T18:38:46.243Z,68140.09
2023-03-18T18:41:14.544Z,68147.06
2023-03-18T18:43:42.578Z,68135.91
2023-03-18T18:46:15.127Z,68135.16
2023-03-18T18:48:47.504Z,68129.13
2023-03-18T18:51:21.895Z,68128.56
2023-03-18T18:53:52.665Z,68125.34
2023-03-18T18:56:32.268Z,68124.63
2023-03-18T18:59:00.937Z,68120.25
2023-03-18T19:01:28.505Z,68122.31
2023-03-18T19:03:56.813Z,68119.28
2023-03-18T19:06:32.300Z,68107.59
2023-03-18T19:09:03.384Z,68105.16
2023-03-18T19:11:31.063Z,68109.09
2023-03-18T19:14:24.771Z,68102.50
2023-03-18T19:16:54.072Z,68098.75
2023-03-18T19:19:26.755Z,68098.53
2023-03-18T19:21:54.828Z,68096.09
2023-03-18T19:24:28.437Z,68094.97
2023-03-18T19:26:59.069Z,68088.75
2023-03-18T19:29:27.608Z,68090.44
2023-03-18T19:31:55.243Z,68081.00
2023-03-18T19:34:23.589Z,68076.50
2023-03-18T19:36:54.210Z,68079.31
2023-03-18T19:39:22.829Z,68074.97
2023-03-18T19:41:53.534Z,68075.34
2023-03-18T19:44:24.462Z,68067.63
2023-03-18T19:46:54.272Z,68062.34
2023-03-18T19:49:28.549Z,68054.03
2023-03-18T19:51:56.614Z,68058.75
2023-03-18T19:54:34.675Z,68055.19
2023-03-18T19:57:05.057Z,68054.41
2023-03-18T19:59:39.064Z,68046.50
2023-03-18T20:02:38.508Z,68042.91
2023-03-18T20:05:17.052Z,68027.47
2023-03-18T20:07:44.599Z,68031.22
2023-03-18T20:10:14.158Z,68026.69
2023-03-18T20:12:44.555Z,68019.91
2023-03-18T20:15:21.039Z,68022.38
2023-03-18T20:17:50.859Z,68025.75
2023-03-18T20:20:20.780Z,68017.84
2023-03-18T20:23:02.981Z,68022.75
2023-03-18T20:25:51.423Z,68022.94
2023-03-18T20:28:24.511Z,68015.38
2023-03-18T20:30:54.070Z,68015.75
2023-03-18T20:33:23.559Z,68016.53
2023-03-18T20:35:54.348Z,68012.38
2023-03-18T20:38:28.408Z,68005.59
2023-03-18T20:40:57.179Z,68006.16
2023-03-18T20:43:28.014Z,68007.47
2023-03-18T20:45:58.418Z,68000.50
2023-03-18T20:48:26.142Z,68003.50
2023-03-18T20:50:56.977Z,68004.63
2023-03-18T20:53:28.498Z,68006.16
2023-03-18T20:55:56.560Z,67998.63
2023-03-18T20:58:25.705Z,67996.94
2023-03-18T21:00:54.037Z,67997.31
2023-03-18T21:03:26.648Z,68003.31
2023-03-18T21:05:58.014Z,68009.16
2023-03-18T21:08:27.460Z,68011.44
2023-03-18T21:10:56.207Z,68003.50
2023-03-18T21:13:39.503Z,68003.16
2023-03-18T21:16:13.224Z,68008.41
2023-03-18T21:18:42.360Z,67959.91
2023-03-18T21:21:21.103Z,68002.19
2023-03-18T21:23:49.317Z,67994.47
2023-03-18T21:26:17.241Z,67997.31
2023-03-18T21:28:44.684Z,68008.03
2023-03-18T21:31:23.298Z,68002.19
2023-03-18T21:33:51.626Z,68006.16
2023-03-18T21:36:20.737Z,68003.88
2023-03-18T21:38:48.229Z,67998.41
2023-03-18T21:41:27.413Z,68002.19
2023-03-18T21:43:55.800Z,68000.69
2023-03-18T21:46:24.877Z,67999.00
2023-03-18T21:48:52.723Z,67999.00
2023-03-18T21:51:37.690Z,67997.84
2023-03-18T21:54:11.580Z,67993.91
2023-03-18T21:56:39.197Z,67991.28
2023-03-18T21:59:06.599Z,67995.59
2023-03-18T22:01:34.198Z,67991.28
2023-03-18T22:04:01.729Z,67997.66
2023-03-18T22:06:29.282Z,68003.88
2023-03-18T22:08:57.464Z,67996.94
2023-03-18T22:11:25.022Z,67999.00
2023-03-18T22:13:54.113Z,68005.59
2023-03-18T22:16:22.019Z,67995.22
2023-03-18T22:18:49.861Z,68004.84
2023-03-18T22:21:27.633Z,68012.00
2023-03-18T22:23:58.206Z,68019.16
2023-03-18T22:26:26.097Z,68014.84
2023-03-18T22:28:53.645Z,68017.09
2023-03-18T22:31:24.899Z,68021.22
2023-03-18T22:33:54.215Z,68011.44
2023-03-18T22:36:22.850Z,68009.16
2023-03-18T22:38:50.522Z,68008.03
2023-03-18T22:41:22.322Z,67963.84
2023-03-18T22:43:51.169Z,68013.13
2023-03-18T22:46:18.912Z,68007.66
2023-03-18T22:48:46.547Z,68006.91
2023-03-18T22:51:24.442Z,68004.63
2023-03-18T22:53:53.787Z,67959.91
2023-03-18T22:56:22.697Z,68001.25
2023-03-18T22:58:51.012Z,67996.94
2023-03-18T23:01:23.580Z,67957.06
2023-03-18T23:03:51.167Z,67998.41
2023-03-18T23:06:23.887Z,67988.25
2023-03-18T23:08:52.241Z,67984.84
2023-03-18T23:11:19.742Z,67981.25
2023-03-18T23:13:50.191Z,67980.72
2023-03-18T23:16:21.091Z,67975.25
2023-03-18T23:18:50.618Z,67974.84
2023-03-18T23:21:21.406Z,67969.41
2023-03-18T23:23:49.732Z,67965.63
2023-03-18T23:26:21.112Z,67916.03
2023-03-18T23:28:49.399Z,67965.06
2023-03-18T23:31:17.458Z,67969.59
2023-03-18T23:33:44.949Z,67961.88
2023-03-18T23:36:12.681Z,67966.22
2023-03-18T23:38:40.712Z,67956.22
2023-03-18T23:41:08.421Z,67952.44
2023-03-18T23:43:36.885Z,67949.03
2023-03-18T23:46:04.530Z,67946.63
2023-03-18T23:48:31.936Z,67898.50
2023-03-18T23:50:59.470Z,67957.53
2023-03-18T23:53:27.354Z,67947.34
2023-03-18T23:55:55.124Z,67905.88
2023-03-18T23:58:22.718Z,67952.63
